createdAt,value
2023-01-27T00:02:39.685Z,62.60
2023-01-27T00:05:25.788Z,62.72
2023-01-27T00:08:11.485Z,70.13
2023-01-27T00:11:19.447Z,65.90
2023-01-27T00:14:16.978Z,63.60
2023-01-27T00:17:02.478Z,69.22
2023-01-27T00:19:48.025Z,61.67
2023-01-27T00:22:52.479Z,70.03
2023-01-27T00:25:38.183Z,72.80
2023-01-27T00:28:25.337Z,66.53
2023-01-27T00:31:32.868Z,66.38
2023-01-27T00:34:18.490Z,61.30
2023-01-27T00:37:03.964Z,57.00
2023-01-27T00:39:49.274Z,62.22
2023-01-27T00:42:35.283Z,64.17
2023-01-27T00:45:39.084Z,65.35
2023-01-27T00:48:24.855Z,65.43
2023-01-27T00:51:11.572Z,66.30
2023-01-27T00:53:59.322Z,65.97
2023-01-27T00:56:45.061Z,71.00
2023-01-27T00:59:31.797Z,66.70
2023-01-27T01:02:17.462Z,71.50
2023-01-27T01:05:03.558Z,76.65
2023-01-27T01:07:49.150Z,75.22
2023-01-27T01:10:34.512Z,68.88
2023-01-27T01:13:21.632Z,72.93
2023-01-27T01:16:20.137Z,72.22
2023-01-27T01:19:05.978Z,73.25
2023-01-27T01:21:51.513Z,67.82
2023-01-27T01:24:37.205Z,67.15
2023-01-27T01:27:22.870Z,64.75
2023-01-27T01:30:09.788Z,65.15
2023-01-27T01:32:56.426Z,65.10
2023-01-27T01:35:42.578Z,65.75
2023-01-27T01:38:28.377Z,68.15
2023-01-27T01:41:18.498Z,66.95
2023-01-27T01:44:32.159Z,65.32
2023-01-27T01:50:04.434Z,61.38
2023-01-27T01:52:50.115Z,64.18
2023-01-27T01:55:39.679Z,66.30
2023-01-27T01:58:28.231Z,59.53
2023-01-27T02:01:16.795Z,63.92
2023-01-27T02:04:09.586Z,63.42
2023-01-27T02:07:12.715Z,59.60
2023-01-27T02:10:00.506Z,60.80
2023-01-27T02:12:46.198Z,57.33
2023-01-27T02:15:32.551Z,60.17
2023-01-27T02:18:18.280Z,51.10
2023-01-27T02:21:04.712Z,55.13
2023-01-27T02:24:10.817Z,54.30
2023-01-27T02:26:56.849Z,52.08
2023-01-27T02:29:42.594Z,49.67
2023-01-27T02:32:28.676Z,59.38
2023-01-27T02:35:21.504Z,50.92
2023-01-27T02:38:09.137Z,56.72
2023-01-27T02:40:59.663Z,55.78
2023-01-27T02:43:45.406Z,53.10
2023-01-27T02:46:31.168Z,58.58
2023-01-27T02:49:16.859Z,53.50
2023-01-27T02:52:02.451Z,52.60
2023-01-27T02:54:48.028Z,60.65
2023-01-27T02:57:33.197Z,57.70
2023-01-27T03:00:22.083Z,54.97
2023-01-27T03:03:07.808Z,57.20
2023-01-27T03:05:53.572Z,61.40
2023-01-27T03:08:38.952Z,61.13
2023-01-27T03:11:42.543Z,60.05
2023-01-27T03:14:46.720Z,61.90
2023-01-27T03:17:51.508Z,61.33
2023-01-27T03:20:37.204Z,59.75
2023-01-27T03:23:22.607Z,58.50
2023-01-27T03:26:09.864Z,62.08
2023-01-27T03:29:14.586Z,61.80
2023-01-27T03:32:00.220Z,67.43
2023-01-27T03:34:45.707Z,64.68
2023-01-27T03:37:50.635Z,57.78
2023-01-27T03:40:54.729Z,67.15
2023-01-27T03:43:58.773Z,63.83
2023-01-27T03:46:44.553Z,64.93
2023-01-27T03:49:30.309Z,62.67
2023-01-27T03:52:16.051Z,64.28
2023-01-27T03:55:01.560Z,66.07
2023-01-27T03:57:47.401Z,62.97
2023-01-27T04:00:33.579Z,58.78
2023-01-27T04:03:39.345Z,60.40
2023-01-27T04:06:47.999Z,66.47
2023-01-27T04:09:36.323Z,66.53
2023-01-27T04:12:22.118Z,65.47
2023-01-27T04:15:08.659Z,59.47
2023-01-27T04:17:54.129Z,67.57
2023-01-27T04:20:39.448Z,66.30
2023-01-27T04:23:25.021Z,61.03
2023-01-27T04:26:10.359Z,61.05
2023-01-27T04:28:56.142Z,61.28
2023-01-27T04:31:42.538Z,57.47
2023-01-27T04:34:28.576Z,53.70
2023-01-27T04:37:14.040Z,59.85
2023-01-27T04:39:59.564Z,59.20
2023-01-27T04:42:44.821Z,60.92
2023-01-27T04:45:30.366Z,59.72
2023-01-27T04:48:15.917Z,62.97
2023-01-27T04:51:01.581Z,54.20
2023-01-27T04:53:47.801Z,55.72
2023-01-27T04:56:55.898Z,52.25
2023-01-27T04:59:41.571Z,50.63
2023-01-27T05:02:27.287Z,52.97
2023-01-27T05:05:13.587Z,55.50
2023-01-27T05:08:10.610Z,45.60
2023-01-27T05:10:55.909Z,50.88
2023-01-27T05:13:41.533Z,49.25
2023-01-27T05:16:27.914Z,45.67
2023-01-27T05:19:13.398Z,50.03
2023-01-27T05:21:58.825Z,46.75
2023-01-27T05:24:48.005Z,52.45
2023-01-27T05:27:33.764Z,51.22
2023-01-27T05:30:19.815Z,48.78
2023-01-27T05:33:05.560Z,46.10
2023-01-27T05:35:50.956Z,43.05
2023-01-27T05:38:36.424Z,42.42
2023-01-27T05:41:21.891Z,44.60
2023-01-27T05:44:11.241Z,41.28
2023-01-27T05:46:56.792Z,38.60
2023-01-27T05:49:42.071Z,43.20
2023-01-27T05:52:27.479Z,42.75
2023-01-27T05:55:13.125Z,42.25
2023-01-27T05:57:58.780Z,40.33
2023-01-27T06:00:45.192Z,38.47
2023-01-27T06:03:30.961Z,39.50
2023-01-27T06:06:20.480Z,36.67
2023-01-27T06:09:06.598Z,35.75
2023-01-27T06:11:55.109Z,37.05
2023-01-27T06:14:40.985Z,38.95
2023-01-27T06:17:26.991Z,38.90
2023-01-27T06:20:13.065Z,37.25
2023-01-27T06:22:59.217Z,45.88
2023-01-27T06:25:48.172Z,43.70
2023-01-27T06:28:34.436Z,52.05
2023-01-27T06:31:22.059Z,47.70
2023-01-27T06:34:07.660Z,49.33
2023-01-27T06:36:54.566Z,47.13
2023-01-27T06:39:40.355Z,53.85
2023-01-27T06:42:25.843Z,51.42
2023-01-27T06:45:13.409Z,47.80
2023-01-27T06:48:01.542Z,48.22
2023-01-27T06:50:47.579Z,48.55
2023-01-27T06:53:34.991Z,47.72
2023-01-27T06:56:21.058Z,52.45
2023-01-27T06:59:07.317Z,53.08
2023-01-27T07:01:53.075Z,50.03
2023-01-27T07:04:39.013Z,49.78
2023-01-27T07:07:24.538Z,52.30
2023-01-27T07:10:10.802Z,53.95
2023-01-27T07:13:09.730Z,53.40
2023-01-27T07:15:56.376Z,60.80
2023-01-27T07:18:42.135Z,52.85
2023-01-27T07:21:27.595Z,55.03
2023-01-27T07:24:13.508Z,54.35
2023-01-27T07:26:59.533Z,55.00
2023-01-27T07:29:45.341Z,58.35
2023-01-27T07:32:31.560Z,55.90
2023-01-27T07:35:18.106Z,56.95
2023-01-27T07:38:04.639Z,57.50
2023-01-27T07:40:50.291Z,65.07
2023-01-27T07:43:36.168Z,63.38
2023-01-27T07:46:21.916Z,66.32
2023-01-27T07:49:07.254Z,66.55
2023-01-27T07:51:53.827Z,67.47
2023-01-27T07:54:39.315Z,68.03
2023-01-27T07:57:24.805Z,75.40
2023-01-27T08:00:15.465Z,67.88
2023-01-27T08:03:02.980Z,74.32
2023-01-27T08:05:48.585Z,74.72
2023-01-27T08:08:36.571Z,69.53
2023-01-27T08:11:23.463Z,75.63
2023-01-27T08:14:09.021Z,67.97
2023-01-27T08:16:54.543Z,75.85
2023-01-27T08:19:39.928Z,66.57
2023-01-27T08:22:25.270Z,69.28
2023-01-27T08:25:10.547Z,72.32
2023-01-27T08:27:56.854Z,76.30
2023-01-27T08:30:42.528Z,73.18
2023-01-27T08:33:28.409Z,68.95
2023-01-27T08:36:17.425Z,74.60
2023-01-27T08:39:03.243Z,67.18
2023-01-27T08:41:48.979Z,74.53
2023-01-27T08:44:34.450Z,72.05
2023-01-27T08:47:19.805Z,67.00
2023-01-27T08:50:05.732Z,65.15
2023-01-27T08:52:51.424Z,76.43
2023-01-27T08:55:36.750Z,75.40
2023-01-27T08:58:23.767Z,69.28
2023-01-27T09:01:10.120Z,67.82
2023-01-27T09:03:55.510Z,70.15
2023-01-27T09:06:41.044Z,61.53
2023-01-27T09:09:26.469Z,60.45
2023-01-27T09:12:11.951Z,60.33
2023-01-27T09:14:58.331Z,63.25
2023-01-27T09:17:44.777Z,58.80
2023-01-27T09:20:30.647Z,60.33
2023-01-27T09:23:15.929Z,60.65
2023-01-27T09:26:01.467Z,58.35
2023-01-27T09:28:46.788Z,57.83
2023-01-27T09:31:32.633Z,55.10
2023-01-27T09:34:19.464Z,55.40
2023-01-27T09:37:12.803Z,52.88
2023-01-27T09:40:09.773Z,58.00
2023-01-27T09:43:13.432Z,58.63
2023-01-27T09:45:58.092Z,54.60
2023-01-27T09:48:53.995Z,56.28
2023-01-27T09:51:47.558Z,58.78
2023-01-27T09:54:52.269Z,63.53
2023-01-27T09:57:34.668Z,56.63
2023-01-27T10:03:15.912Z,58.40
2023-01-27T10:05:48.666Z,68.20
2023-01-27T10:08:54.420Z,63.83
2023-01-27T10:11:27.392Z,60.92
2023-01-27T10:14:25.423Z,63.58
2023-01-27T10:17:24.291Z,60.80
2023-01-27T10:20:16.989Z,54.45
2023-01-27T10:22:52.439Z,59.28
2023-01-27T10:25:44.968Z,50.38
2023-01-27T10:31:02.325Z,42.75
2023-01-27T10:33:52.222Z,48.60
2023-01-27T10:36:41.275Z,50.65
2023-01-27T10:39:44.250Z,46.63
2023-01-27T10:42:37.085Z,37.70
2023-01-27T10:45:16.573Z,35.63
2023-01-27T10:48:25.811Z,35.25
2023-01-27T10:51:04.123Z,36.42
2023-01-27T10:54:01.386Z,34.38
2023-01-27T10:56:45.515Z,35.35
2023-01-27T10:59:46.396Z,38.15
2023-01-27T11:02:52.072Z,35.72
2023-01-27T11:05:37.686Z,34.08
2023-01-27T11:08:23.724Z,33.78
2023-01-27T11:11:10.271Z,36.55
2023-01-27T11:13:38.802Z,33.60
2023-01-27T11:16:14.795Z,29.05
2023-01-27T11:18:46.677Z,31.63
2023-01-27T11:21:21.056Z,31.75
2023-01-27T11:23:57.019Z,30.95
2023-01-27T11:26:52.725Z,30.13
2023-01-27T11:29:55.283Z,30.20
2023-01-27T11:32:50.092Z,34.67
2023-01-27T11:35:17.583Z,35.30
2023-01-27T11:37:51.246Z,36.72
2023-01-27T11:40:39.317Z,36.28
2023-01-27T11:43:06.547Z,32.28
2023-01-27T11:45:38.219Z,25.10
2023-01-27T11:48:14.299Z,25.52
2023-01-27T11:50:43.056Z,30.33
2023-01-27T11:53:32.212Z,27.92
2023-01-27T11:56:08.717Z,29.95
2023-01-27T11:59:02.679Z,27.48
2023-01-27T12:01:48.026Z,26.40
2023-01-27T12:05:09.979Z,24.98
2023-01-27T12:07:46.045Z,20.40
2023-01-27T12:10:38.862Z,18.08
2023-01-27T12:13:25.674Z,19.80
2023-01-27T12:16:05.092Z,18.60
2023-01-27T12:18:38.225Z,18.70
2023-01-27T12:21:08.930Z,17.90
2023-01-27T12:23:52.732Z,16.60
2023-01-27T12:26:33.943Z,17.80
2023-01-27T12:29:16.842Z,16.33
2023-01-27T12:31:52.517Z,16.73
2023-01-27T12:34:39.109Z,17.90
2023-01-27T12:37:10.705Z,16.83
2023-01-27T12:39:49.075Z,20.10
2023-01-27T12:42:40.789Z,16.88
2023-01-27T12:45:23.295Z,15.27
2023-01-27T12:48:14.691Z,18.30
2023-01-27T12:51:13.986Z,17.88
2023-01-27T12:53:44.243Z,15.43
2023-01-27T12:56:22.674Z,15.52
2023-01-27T12:58:58.466Z,15.50
2023-01-27T13:01:37.488Z,15.02
2023-01-27T13:04:20.180Z,20.85
2023-01-27T13:06:54.461Z,15.80
2023-01-27T13:09:35.108Z,18.40
2023-01-27T13:12:24.575Z,17.17
2023-01-27T13:15:21.845Z,15.30
2023-01-27T13:17:56.258Z,16.08
2023-01-27T13:20:33.780Z,14.15
2023-01-27T13:23:10.413Z,13.20
2023-01-27T13:25:44.663Z,11.45
2023-01-27T13:28:20.678Z,10.00
2023-01-27T13:30:54.356Z,14.65
2023-01-27T13:33:48.623Z,11.63
2023-01-27T13:36:58.389Z,9.52
2023-01-27T13:39:35.050Z,10.70
2023-01-27T13:42:05.220Z,12.85
2023-01-27T13:44:57.222Z,12.52
2023-01-27T13:47:29.838Z,13.82
2023-01-27T13:50:20.749Z,13.05
2023-01-27T13:52:53.079Z,11.57
2023-01-27T13:55:43.882Z,11.38
2023-01-27T13:58:23.141Z,9.27
2023-01-27T14:01:08.395Z,12.25
2023-01-27T14:04:14.106Z,8.40
2023-01-27T14:07:01.497Z,8.98
2023-01-27T14:09:43.384Z,12.00
2023-01-27T14:12:22.061Z,7.15
2023-01-27T14:15:30.073Z,9.18
2023-01-27T14:18:05.701Z,13.98
2023-01-27T14:20:44.680Z,12.65
2023-01-27T14:23:50.846Z,14.88
2023-01-27T14:26:26.598Z,13.10
2023-01-27T14:29:11.716Z,17.55
2023-01-27T14:32:06.385Z,15.55
2023-01-27T14:35:00.876Z,18.42
2023-01-27T14:37:59.099Z,13.55
2023-01-27T14:40:37.284Z,10.55
2023-01-27T14:43:37.160Z,13.75
2023-01-27T14:46:48.658Z,20.48
2023-01-27T14:49:38.759Z,18.20
2023-01-27T14:52:56.524Z,14.70
2023-01-27T14:55:59.985Z,15.07
2023-01-27T14:59:08.661Z,16.10
2023-01-27T15:02:40.142Z,41.33
2023-01-27T15:06:01.454Z,50.78
2023-01-27T15:09:21.217Z,54.22
2023-01-27T15:12:32.856Z,46.65
2023-01-27T15:15:31.055Z,26.75
2023-01-27T15:18:16.188Z,14.23
2023-01-27T15:21:07.459Z,14.95
2023-01-27T15:23:49.982Z,8.05
2023-01-27T15:26:23.778Z,11.13
2023-01-27T15:28:51.681Z,12.90
2023-01-27T15:31:18.880Z,13.02
2023-01-27T15:33:52.101Z,13.57
2023-01-27T15:36:28.394Z,14.68
2023-01-27T15:39:10.429Z,14.23
2023-01-27T15:41:52.322Z,14.57
2023-01-27T15:44:19.732Z,12.25
2023-01-27T15:46:52.849Z,17.92
2023-01-27T15:49:36.368Z,12.20
2023-01-27T15:52:29.266Z,13.18
2023-01-27T15:55:01.254Z,7.68
2023-01-27T15:57:35.122Z,12.52
2023-01-27T16:00:28.834Z,15.15
2023-01-27T16:03:03.052Z,8.77
2023-01-27T16:05:45.808Z,17.58
2023-01-27T16:08:16.257Z,9.98
2023-01-27T16:10:45.258Z,12.55
2023-01-27T16:13:20.902Z,12.57
2023-01-27T16:15:48.134Z,12.02
2023-01-27T16:18:15.307Z,13.80
2023-01-27T16:20:42.451Z,16.63
2023-01-27T16:23:23.939Z,13.30
2023-01-27T16:26:20.688Z,10.60
2023-01-27T16:28:52.346Z,14.35
2023-01-27T16:31:24.811Z,14.55
2023-01-27T16:34:00.249Z,10.30
2023-01-27T16:36:36.664Z,14.43
2023-01-27T16:39:50.280Z,16.70
2023-01-27T16:42:18.123Z,9.35
2023-01-27T16:44:51.905Z,10.07
2023-01-27T16:47:26.999Z,15.93
2023-01-27T16:49:59.834Z,11.30
2023-01-27T16:52:41.634Z,9.10
2023-01-27T16:55:29.891Z,9.27
2023-01-27T16:58:00.352Z,12.63
2023-01-27T17:00:34.687Z,10.73
2023-01-27T17:03:16.459Z,7.68
2023-01-27T17:05:43.904Z,11.23
2023-01-27T17:08:35.410Z,8.55
2023-01-27T17:11:29.431Z,11.30
2023-01-27T17:14:03.147Z,14.88
2023-01-27T17:16:36.510Z,20.38
2023-01-27T17:19:17.724Z,15.23
2023-01-27T17:21:55.783Z,16.23
2023-01-27T17:24:30.389Z,17.20
2023-01-27T17:27:22.671Z,13.23
2023-01-27T17:29:55.368Z,11.20
2023-01-27T17:32:27.674Z,9.55
2023-01-27T17:34:58.763Z,9.23
2023-01-27T17:37:26.837Z,6.97
2023-01-27T17:40:13.200Z,6.07
2023-01-27T17:42:41.023Z,6.35
2023-01-27T17:45:34.169Z,8.88
2023-01-27T17:48:02.205Z,6.70
2023-01-27T17:50:38.213Z,8.68
2023-01-27T17:53:11.773Z,5.47
2023-01-27T17:55:39.401Z,6.90
2023-01-27T17:58:17.715Z,10.82
2023-01-27T18:00:46.475Z,5.57
2023-01-27T18:03:26.853Z,9.50
2023-01-27T18:05:55.235Z,13.65
2023-01-27T18:08:25.033Z,5.10
2023-01-27T18:10:52.801Z,11.00
2023-01-27T18:13:20.047Z,3.67
2023-01-27T18:16:24.496Z,9.18
2023-01-27T18:19:09.966Z,6.82
2023-01-27T18:21:37.331Z,9.73
2023-01-27T18:24:21.139Z,13.13
2023-01-27T18:26:53.306Z,7.47
2023-01-27T18:29:30.782Z,13.00
2023-01-27T18:31:58.793Z,12.45
2023-01-27T18:34:32.851Z,11.15
2023-01-27T18:37:23.619Z,10.52
2023-01-27T18:39:50.893Z,10.30
2023-01-27T18:42:23.124Z,15.68
2023-01-27T18:47:18.571Z,23.33
2023-01-27T18:50:06.493Z,9.85
2023-01-27T18:52:33.965Z,9.02
2023-01-27T18:55:30.584Z,7.85
2023-01-27T18:57:59.956Z,14.10
2023-01-27T19:00:36.024Z,11.48
2023-01-27T19:03:04.798Z,9.77
2023-01-27T19:05:35.654Z,12.82
2023-01-27T19:08:03.870Z,14.10
2023-01-27T19:10:35.100Z,10.30
2023-01-27T19:13:04.073Z,12.30
2023-01-27T19:15:41.601Z,10.63
2023-01-27T19:18:37.633Z,16.15
2023-01-27T19:21:05.263Z,18.27
2023-01-27T19:23:32.851Z,16.33
2023-01-27T19:26:03.387Z,18.38
2023-01-27T19:28:40.667Z,15.38
2023-01-27T19:31:08.045Z,18.77
2023-01-27T19:33:37.352Z,14.38
2023-01-27T19:36:40.629Z,11.18
2023-01-27T19:39:07.566Z,12.02
2023-01-27T19:41:35.009Z,8.73
2023-01-27T19:44:02.144Z,12.45
2023-01-27T19:46:30.042Z,13.60
2023-01-27T19:48:57.125Z,15.43
2023-01-27T19:51:24.782Z,16.70
2023-01-27T19:53:51.839Z,17.83
2023-01-27T19:56:24.285Z,20.23
2023-01-27T19:58:55.122Z,22.02
2023-01-27T20:01:25.250Z,19.13
2023-01-27T20:03:53.868Z,20.88
2023-01-27T20:06:27.363Z,17.77
2023-01-27T20:08:57.178Z,18.73
2023-01-27T20:11:38.370Z,14.88
2023-01-27T20:14:19.067Z,14.02
2023-01-27T20:16:47.186Z,15.98
2023-01-27T20:19:15.991Z,16.67
2023-01-27T20:21:45.479Z,15.48
2023-01-27T20:24:18.498Z,13.10
2023-01-27T20:26:46.935Z,18.00
2023-01-27T20:29:14.422Z,21.50
2023-01-27T20:31:44.102Z,19.60
2023-01-27T20:34:11.293Z,9.80
2023-01-27T20:36:38.431Z,10.90
2023-01-27T20:39:05.592Z,8.00
2023-01-27T20:41:32.824Z,12.90
2023-01-27T20:44:00.664Z,13.18
2023-01-27T20:46:29.496Z,11.40
2023-01-27T20:48:58.907Z,12.57
2023-01-27T20:51:28.639Z,12.10
2023-01-27T20:53:55.795Z,18.00
2023-01-27T20:56:24.142Z,19.42
2023-01-27T20:58:54.337Z,16.58
2023-01-27T21:01:23.702Z,21.40
2023-01-27T21:03:51.268Z,23.27
2023-01-27T21:06:22.084Z,23.45
2023-01-27T21:08:49.695Z,26.70
2023-01-27T21:11:21.334Z,32.22
2023-01-27T21:13:49.979Z,29.55
2023-01-27T21:16:17.295Z,33.88
2023-01-27T21:18:47.360Z,31.95
2023-01-27T21:21:26.952Z,31.98
2023-01-27T21:23:55.463Z,31.92
2023-01-27T21:26:23.783Z,26.27
2023-01-27T21:28:51.318Z,23.77
2023-01-27T21:31:21.763Z,18.17
2023-01-27T21:33:50.238Z,15.77
2023-01-27T21:36:19.214Z,15.63
2023-01-27T21:38:46.576Z,12.68
2023-01-27T21:41:36.433Z,15.77
2023-01-27T21:44:34.406Z,14.88
2023-01-27T21:47:03.804Z,15.43
2023-01-27T21:49:34.368Z,15.68
2023-01-27T21:52:01.434Z,12.82
2023-01-27T21:54:28.769Z,11.60
2023-01-27T21:56:55.992Z,13.77
2023-01-27T21:59:25.672Z,15.68
2023-01-27T22:01:55.398Z,16.50
2023-01-27T22:04:22.631Z,16.98
2023-01-27T22:06:49.780Z,16.80
2023-01-27T22:09:17.055Z,13.77
2023-01-27T22:11:44.324Z,16.00
2023-01-27T22:14:11.740Z,14.73
2023-01-27T22:16:38.830Z,13.15
2023-01-27T22:19:08.161Z,12.82
2023-01-27T22:21:35.286Z,12.52
2023-01-27T22:24:02.534Z,11.52
2023-01-27T22:26:32.208Z,10.43
2023-01-27T22:28:59.241Z,9.48
2023-01-27T22:31:26.422Z,11.30
2023-01-27T22:33:54.340Z,8.80
2023-01-27T22:36:21.484Z,10.50
2023-01-27T22:38:51.061Z,10.00
2023-01-27T22:41:18.198Z,11.45
2023-01-27T22:43:45.347Z,9.52
2023-01-27T22:46:14.873Z,11.52
2023-01-27T22:48:42.185Z,10.88
2023-01-27T22:51:09.320Z,12.23
2023-01-27T22:53:36.512Z,12.07
2023-01-27T22:56:04.716Z,11.38
2023-01-27T22:58:34.745Z,11.15
2023-01-27T23:01:08.483Z,12.50
2023-01-27T23:03:35.650Z,10.05
2023-01-27T23:06:10.763Z,11.77
2023-01-27T23:08:37.896Z,14.40
2023-01-27T23:11:06.701Z,10.63
2023-01-27T23:13:35.118Z,11.82
2023-01-27T23:16:02.277Z,13.38
2023-01-27T23:18:31.896Z,12.48
2023-01-27T23:21:06.447Z,13.32
2023-01-27T23:23:39.038Z,12.27
2023-01-27T23:26:08.950Z,11.50
2023-01-27T23:28:38.531Z,13.82
2023-01-27T23:31:14.541Z,16.70
2023-01-27T23:33:48.126Z,14.52
2023-01-27T23:36:15.325Z,13.55
2023-01-27T23:38:42.541Z,12.27
2023-01-27T23:41:14.540Z,13.13
2023-01-27T23:43:41.702Z,11.98
2023-01-27T23:46:08.941Z,9.48
2023-01-27T23:48:36.043Z,9.57
2023-01-27T23:51:13.244Z,12.80
2023-01-27T23:53:40.341Z,14.20
2023-01-27T23:56:09.389Z,14.27
2023-01-27T23:58:36.490Z,13.38
